sensor_id;sensor_type;location;lat;lon;timestamp;pressure;altitude;pressure_sealevel;temperature;humidity
63285;BME280;49409;55.708;37.522;2023-03-20T00:01:14;99882.78;;;5.72;38.29
63285;BME280;49409;55.708;37.522;2023-03-20T00:03:40;99882.06;;;5.75;38.57
63285;BME280;49409;55.708;37.522;2023-03-20T00:06:11;99886.75;;;5.75;38.35
63285;BME280;49409;55.708;37.522;2023-03-20T00:08:38;99875.00;;;5.74;38.91
63285;BME280;49409;55.708;37.522;2023-03-20T00:11:03;99888.66;;;5.74;38.93
63285;BME280;49409;55.708;37.522;2023-03-20T00:13:29;99885.94;;;5.74;38.79
63285;BME280;49409;55.708;37.522;2023-03-20T00:15:54;99888.25;;;5.72;38.58
63285;BME280;49409;55.708;37.522;2023-03-20T00:18:21;99885.88;;;5.67;38.29
63285;BME280;49409;55.708;37.522;2023-03-20T00:20:48;99880.41;;;5.67;39.09
63285;BME280;49409;55.708;37.522;2023-03-20T00:23:14;99883.13;;;5.67;38.75
63285;BME280;49409;55.708;37.522;2023-03-20T00:25:40;99883.50;;;5.66;38.70
63285;BME280;49409;55.708;37.522;2023-03-20T00:30:50;99881.13;;;5.64;38.85
63285;BME280;49409;55.708;37.522;2023-03-20T00:33:16;99878.41;;;5.64;38.94
63285;BME280;49409;55.708;37.522;2023-03-20T00:35:41;99871.03;;;5.65;39.21
63285;BME280;49409;55.708;37.522;2023-03-20T00:38:07;99877.25;;;5.65;38.45
63285;BME280;49409;55.708;37.522;2023-03-20T00:40:32;99878.03;;;5.66;38.60
63285;BME280;49409;55.708;37.522;2023-03-20T00:42:59;99870.22;;;5.64;38.87
63285;BME280;49409;55.708;37.522;2023-03-20T00:45:25;99862.44;;;5.66;38.54
63285;BME280;49409;55.708;37.522;2023-03-20T00:47:51;99867.91;;;5.66;38.91
63285;BME280;49409;55.708;37.522;2023-03-20T00:52:42;99867.84;;;5.59;38.84
63285;BME280;49409;55.708;37.522;2023-03-20T00:55:08;99864.69;;;5.57;38.57
63285;BME280;49409;55.708;37.522;2023-03-20T00:57:45;99860.72;;;5.54;39.39
63285;BME280;49409;55.708;37.522;2023-03-20T01:00:24;99860.69;;;5.51;38.74
63285;BME280;49409;55.708;37.522;2023-03-20T01:02:51;99864.91;;;5.45;38.99
63285;BME280;49409;55.708;37.522;2023-03-20T01:05:18;99862.91;;;5.42;39.48
63285;BME280;49409;55.708;37.522;2023-03-20T01:07:43;99862.88;;;5.38;38.87
63285;BME280;49409;55.708;37.522;2023-03-20T01:10:10;99859.66;;;5.32;39.24
63285;BME280;49409;55.708;37.522;2023-03-20T01:12:37;99866.19;;;5.24;39.47
63285;BME280;49409;55.708;37.522;2023-03-20T01:15:03;99871.22;;;5.22;39.56
63285;BME280;49409;55.708;37.522;2023-03-20T01:17:34;99861.84;;;5.20;39.18
63285;BME280;49409;55.708;37.522;2023-03-20T01:20:00;99857.91;;;5.17;39.18
63285;BME280;49409;55.708;37.522;2023-03-20T01:22:25;99863.75;;;5.15;39.41
63285;BME280;49409;55.708;37.522;2023-03-20T01:24:50;99862.88;;;5.11;39.61
63285;BME280;49409;55.708;37.522;2023-03-20T01:27:17;99857.41;;;5.08;39.30
63285;BME280;49409;55.708;37.522;2023-03-20T01:29:43;99857.81;;;5.10;39.67
63285;BME280;49409;55.708;37.522;2023-03-20T01:32:12;99849.63;;;5.10;39.63
63285;BME280;49409;55.708;37.522;2023-03-20T01:34:38;99853.13;;;5.10;39.43
63285;BME280;49409;55.708;37.522;2023-03-20T01:37:05;99846.97;;;5.13;39.71
63285;BME280;49409;55.708;37.522;2023-03-20T01:39:34;99854.75;;;5.15;39.04
63285;BME280;49409;55.708;37.522;2023-03-20T01:42:00;99851.59;;;5.13;39.26
63285;BME280;49409;55.708;37.522;2023-03-20T01:44:30;99852.34;;;5.10;39.42
63285;BME280;49409;55.708;37.522;2023-03-20T01:46:56;99845.31;;;5.09;39.61
63285;BME280;49409;55.708;37.522;2023-03-20T01:51:47;99833.09;;;4.99;39.31
63285;BME280;49409;55.708;37.522;2023-03-20T01:56:51;99831.06;;;4.92;39.70
63285;BME280;49409;55.708;37.522;2023-03-20T01:59:40;99830.94;;;4.85;40.12
63285;BME280;49409;55.708;37.522;2023-03-20T02:02:07;99837.16;;;4.82;39.53
63285;BME280;49409;55.708;37.522;2023-03-20T02:04:37;99837.16;;;4.82;39.92
63285;BME280;49409;55.708;37.522;2023-03-20T02:07:05;99817.63;;;4.80;40.28
63285;BME280;49409;55.708;37.522;2023-03-20T02:09:32;99817.63;;;4.80;40.28
63285;BME280;49409;55.708;37.522;2023-03-20T02:11:57;99824.22;;;4.79;39.62
63285;BME280;49409;55.708;37.522;2023-03-20T02:14:23;99830.00;;;4.74;39.85
63285;BME280;49409;55.708;37.522;2023-03-20T02:16:48;99829.16;;;4.70;39.62
63285;BME280;49409;55.708;37.522;2023-03-20T02:19:16;99826.81;;;4.68;39.72
63285;BME280;49409;55.708;37.522;2023-03-20T02:27:07;99820.19;;;4.69;40.22
63285;BME280;49409;55.708;37.522;2023-03-20T02:35:08;99808.72;;;4.56;40.45
63285;BME280;49409;55.708;37.522;2023-03-20T02:40:08;99805.56;;;4.54;40.03
63285;BME280;49409;55.708;37.522;2023-03-20T02:56:13;99798.66;;;4.61;40.11
63285;BME280;49409;55.708;37.522;2023-03-20T02:58:47;99795.19;;;4.64;40.09
63285;BME280;49409;55.708;37.522;2023-03-20T03:01:16;99799.56;;;4.68;39.63
63285;BME280;49409;55.708;37.522;2023-03-20T03:03:55;99794.13;;;4.72;39.75
63285;BME280;49409;55.708;37.522;2023-03-20T03:08:48;99786.41;;;4.74;39.87
63285;BME280;49409;55.708;37.522;2023-03-20T03:11:14;99789.13;;;4.74;39.79
63285;BME280;49409;55.708;37.522;2023-03-20T03:13:50;99789.53;;;4.76;39.34
63285;BME280;49409;55.708;37.522;2023-03-20T03:16:27;99787.59;;;4.76;39.66
63285;BME280;49409;55.708;37.522;2023-03-20T03:19:13;99782.91;;;4.77;39.91
63285;BME280;49409;55.708;37.522;2023-03-20T03:21:42;99776.75;;;4.80;39.46
63285;BME280;49409;55.708;37.522;2023-03-20T03:26:54;99774.44;;;4.82;39.37
63285;BME280;49409;55.708;37.522;2023-03-20T03:29:20;99775.28;;;4.86;39.89
63285;BME280;49409;55.708;37.522;2023-03-20T03:31:48;99774.56;;;4.93;39.15
63285;BME280;49409;55.708;37.522;2023-03-20T03:34:15;99770.00;;;5.01;39.42
63285;BME280;49409;55.708;37.522;2023-03-20T03:39:45;99771.41;;;5.18;39.66
63285;BME280;49409;55.708;37.522;2023-03-20T03:42:11;99764.47;;;5.24;39.40
63285;BME280;49409;55.708;37.522;2023-03-20T03:49:59;99765.47;;;5.42;38.84
63285;BME280;49409;55.708;37.522;2023-03-20T03:52:26;99763.56;;;5.46;39.04
63285;BME280;49409;55.708;37.522;2023-03-20T03:54:54;99756.97;;;5.51;39.35
63285;BME280;49409;55.708;37.522;2023-03-20T03:57:24;99760.97;;;5.57;39.23
63285;BME280;49409;55.708;37.522;2023-03-20T03:59:52;99754.78;;;5.64;39.08
63285;BME280;49409;55.708;37.522;2023-03-20T04:02:18;99751.31;;;5.70;38.75
63285;BME280;49409;55.708;37.522;2023-03-20T04:04:45;99754.56;;;5.80;38.61
63285;BME280;49409;55.708;37.522;2023-03-20T04:07:15;99749.56;;;5.89;38.61
63285;BME280;49409;55.708;37.522;2023-03-20T04:09:43;99753.56;;;5.95;38.22
63285;BME280;49409;55.708;37.522;2023-03-20T04:12:29;99748.16;;;6.02;38.83
63285;BME280;49409;55.708;37.522;2023-03-20T04:14:56;99757.59;;;6.08;38.73
63285;BME280;49409;55.708;37.522;2023-03-20T04:17:21;99749.84;;;6.18;38.27
63285;BME280;49409;55.708;37.522;2023-03-20T04:19:47;99751.88;;;6.24;38.13
63285;BME280;49409;55.708;37.522;2023-03-20T04:22:12;99745.66;;;6.31;38.49
63285;BME280;49409;55.708;37.522;2023-03-20T04:24:37;99749.25;;;6.39;38.17
63285;BME280;49409;55.708;37.522;2023-03-20T04:27:03;99747.75;;;6.48;38.25
63285;BME280;49409;55.708;37.522;2023-03-20T04:29:28;99748.22;;;6.58;38.33
63285;BME280;49409;55.708;37.522;2023-03-20T04:31:53;99745.56;;;6.72;38.23
63285;BME280;49409;55.708;37.522;2023-03-20T04:34:21;99738.25;;;6.90;37.99
63285;BME280;49409;55.708;37.522;2023-03-20T04:36:47;99739.50;;;7.04;37.64
63285;BME280;49409;55.708;37.522;2023-03-20T04:39:12;99738.75;;;7.18;37.82
63285;BME280;49409;55.708;37.522;2023-03-20T04:41:38;99743.91;;;7.33;37.50
63285;BME280;49409;55.708;37.522;2023-03-20T04:44:03;99745.94;;;7.51;37.57
63285;BME280;49409;55.708;37.522;2023-03-20T04:46:32;99738.16;;;7.74;37.39
63285;BME280;49409;55.708;37.522;2023-03-20T04:48:57;99735.84;;;7.91;37.33
63285;BME280;49409;55.708;37.522;2023-03-20T04:51:22;99748.38;;;8.10;36.85
63285;BME280;49409;55.708;37.522;2023-03-20T04:53:48;99734.28;;;8.26;36.84
63285;BME280;49409;55.708;37.522;2023-03-20T04:56:13;99743.28;;;8.37;36.69
63285;BME280;49409;55.708;37.522;2023-03-20T04:58:38;99740.97;;;8.53;36.59
63285;BME280;49409;55.708;37.522;2023-03-20T05:01:04;99740.53;;;8.69;36.27
63285;BME280;49409;55.708;37.522;2023-03-20T05:03:29;99739.72;;;8.80;36.31
63285;BME280;49409;55.708;37.522;2023-03-20T05:05:54;99737.34;;;8.92;35.98
63285;BME280;49409;55.708;37.522;2023-03-20T05:08:20;99736.56;;;8.99;35.99
63285;BME280;49409;55.708;37.522;2023-03-20T05:10:45;99737.72;;;9.02;35.94
63285;BME280;49409;55.708;37.522;2023-03-20T05:13:10;99735.34;;;9.00;35.67
63285;BME280;49409;55.708;37.522;2023-03-20T05:15:36;99736.94;;;8.98;35.39
63285;BME280;49409;55.708;37.522;2023-03-20T05:18:01;99727.94;;;8.90;35.31
63285;BME280;49409;55.708;37.522;2023-03-20T05:20:27;99741.28;;;8.84;35.39
63285;BME280;49409;55.708;37.522;2023-03-20T05:22:52;99741.69;;;8.79;35.17
63285;BME280;49409;55.708;37.522;2023-03-20T05:25:17;99739.72;;;8.76;35.54
63285;BME280;49409;55.708;37.522;2023-03-20T05:27:43;99746.00;;;8.80;35.50
63285;BME280;49409;55.708;37.522;2023-03-20T05:30:09;99742.88;;;8.78;35.17
63285;BME280;49409;55.708;37.522;2023-03-20T05:32:35;99756.97;;;8.80;35.18
63285;BME280;49409;55.708;37.522;2023-03-20T05:35:00;99743.63;;;8.82;34.87
63285;BME280;49409;55.708;37.522;2023-03-20T05:37:26;99742.09;;;8.85;35.08
63285;BME280;49409;55.708;37.522;2023-03-20T05:39:51;99736.97;;;8.87;35.16
63285;BME280;49409;55.708;37.522;2023-03-20T05:42:16;99738.91;;;8.93;34.74
63285;BME280;49409;55.708;37.522;2023-03-20T05:44:42;99740.44;;;9.02;34.84
63285;BME280;49409;55.708;37.522;2023-03-20T05:47:07;99739.63;;;9.16;34.94
63285;BME280;49409;55.708;37.522;2023-03-20T05:49:32;99745.84;;;9.27;34.44
63285;BME280;49409;55.708;37.522;2023-03-20T05:51:58;99751.69;;;9.40;34.43
63285;BME280;49409;55.708;37.522;2023-03-20T05:54:23;99756.75;;;9.52;33.93
63285;BME280;49409;55.708;37.522;2023-03-20T05:56:48;99748.81;;;9.61;33.67
63285;BME280;49409;55.708;37.522;2023-03-20T05:59:14;99746.00;;;9.76;33.27
63285;BME280;49409;55.708;37.522;2023-03-20T06:01:39;99747.97;;;9.75;33.67
63285;BME280;49409;55.708;37.522;2023-03-20T06:04:05;99752.28;;;9.80;33.59
63285;BME280;49409;55.708;37.522;2023-03-20T06:06:30;99754.56;;;9.85;33.53
63285;BME280;49409;55.708;37.522;2023-03-20T06:08:55;99763.63;;;9.85;33.17
63285;BME280;49409;55.708;37.522;2023-03-20T06:11:21;99755.78;;;9.84;33.30
63285;BME280;49409;55.708;37.522;2023-03-20T06:13:46;99750.28;;;9.80;33.15
63285;BME280;49409;55.708;37.522;2023-03-20T06:16:11;99750.28;;;9.80;33.50
63285;BME280;49409;55.708;37.522;2023-03-20T06:18:37;99750.28;;;9.80;33.18
63285;BME280;49409;55.708;37.522;2023-03-20T06:21:03;99752.66;;;9.82;33.23
63285;BME280;49409;55.708;37.522;2023-03-20T06:23:29;99745.94;;;9.83;33.45
63285;BME280;49409;55.708;37.522;2023-03-20T06:25:55;99749.06;;;9.85;33.15
63285;BME280;49409;55.708;37.522;2023-03-20T06:28:20;99741.66;;;9.82;33.53
63285;BME280;49409;55.708;37.522;2023-03-20T06:30:46;99732.22;;;9.83;33.37
63285;BME280;49409;55.708;37.522;2023-03-20T06:33:11;99737.31;;;9.81;33.55
63285;BME280;49409;55.708;37.522;2023-03-20T06:35:37;99737.72;;;9.83;33.09
63285;BME280;49409;55.708;37.522;2023-03-20T06:38:02;99736.91;;;9.89;33.39
63285;BME280;49409;55.708;37.522;2023-03-20T06:40:27;99731.34;;;9.93;33.34
63285;BME280;49409;55.708;37.522;2023-03-20T06:42:53;99732.06;;;10.04;33.20
63285;BME280;49409;55.708;37.522;2023-03-20T06:45:19;99733.19;;;10.10;32.81
63285;BME280;49409;55.708;37.522;2023-03-20T06:47:44;99719.41;;;10.18;33.01
63285;BME280;49409;55.708;37.522;2023-03-20T06:50:11;99727.91;;;10.34;32.83
63285;BME280;49409;55.708;37.522;2023-03-20T06:52:36;99734.88;;;10.49;32.71
63285;BME280;49409;55.708;37.522;2023-03-20T06:58:17;99727.25;;;10.64;32.78
63285;BME280;49409;55.708;37.522;2023-03-20T07:00:42;99729.09;;;10.78;32.62
63285;BME280;49409;55.708;37.522;2023-03-20T07:03:09;99717.06;;;10.96;32.51
63285;BME280;49409;55.708;37.522;2023-03-20T07:05:35;99726.00;;;11.07;32.41
63285;BME280;49409;55.708;37.522;2023-03-20T07:08:02;99704.25;;;11.16;31.92
63285;BME280;49409;55.708;37.522;2023-03-20T07:10:27;99706.53;;;11.21;31.86
63285;BME280;49409;55.708;37.522;2023-03-20T07:12:53;99711.25;;;11.24;32.03
63285;BME280;49409;55.708;37.522;2023-03-20T07:15:19;99714.44;;;11.19;29.98
63285;BME280;49409;55.708;37.522;2023-03-20T07:17:45;99707.72;;;11.24;31.37
63285;BME280;49409;55.708;37.522;2023-03-20T07:20:11;99701.88;;;11.18;31.84
63285;BME280;49409;55.708;37.522;2023-03-20T07:22:37;99702.69;;;11.15;32.00
63285;BME280;49409;55.708;37.522;2023-03-20T07:25:02;99698.75;;;11.16;31.85
63285;BME280;49409;55.708;37.522;2023-03-20T07:27:28;99706.66;;;11.14;31.94
63285;BME280;49409;55.708;37.522;2023-03-20T07:29:53;99713.81;;;11.08;31.47
63285;BME280;49409;55.708;37.522;2023-03-20T07:32:18;99710.69;;;11.06;31.70
63285;BME280;49409;55.708;37.522;2023-03-20T07:34:44;99710.34;;;11.00;31.64
63285;BME280;49409;55.708;37.522;2023-03-20T07:37:11;99709.56;;;11.00;31.67
63285;BME280;49409;55.708;37.522;2023-03-20T07:39:36;99703.78;;;10.90;31.36
63285;BME280;49409;55.708;37.522;2023-03-20T07:42:02;99698.28;;;10.90;31.85
63285;BME280;49409;55.708;37.522;2023-03-20T07:44:27;99699.03;;;10.91;31.89
63285;BME280;49409;55.708;37.522;2023-03-20T07:46:52;99705.25;;;10.99;31.80
63285;BME280;49409;55.708;37.522;2023-03-20T07:49:18;99698.03;;;11.12;31.59
63285;BME280;49409;55.708;37.522;2023-03-20T07:51:46;99695.53;;;11.21;31.42
63285;BME280;49409;55.708;37.522;2023-03-20T07:54:12;99695.41;;;11.32;31.15
63285;BME280;49409;55.708;37.522;2023-03-20T07:56:39;99696.81;;;11.44;31.32
63285;BME280;49409;55.708;37.522;2023-03-20T07:59:04;99703.78;;;11.52;31.11
63285;BME280;49409;55.708;37.522;2023-03-20T08:01:29;99702.91;;;11.59;30.70
63285;BME280;49409;55.708;37.522;2023-03-20T08:03:55;99695.78;;;11.61;30.88
63285;BME280;49409;55.708;37.522;2023-03-20T08:06:20;99695.66;;;11.68;30.56
63285;BME280;49409;55.708;37.522;2023-03-20T08:08:46;99690.47;;;11.74;30.48
63285;BME280;49409;55.708;37.522;2023-03-20T08:11:11;99686.09;;;11.77;30.70
63285;BME280;49409;55.708;37.522;2023-03-20T08:13:36;99689.97;;;11.83;30.61
63285;BME280;49409;55.708;37.522;2023-03-20T08:16:02;99682.81;;;11.89;30.54
63285;BME280;49409;55.708;37.522;2023-03-20T08:18:27;99683.88;;;11.95;30.57
63285;BME280;49409;55.708;37.522;2023-03-20T08:20:53;99684.25;;;11.97;30.54
63285;BME280;49409;55.708;37.522;2023-03-20T08:23:18;99684.25;;;11.97;30.18
63285;BME280;49409;55.708;37.522;2023-03-20T08:25:47;99685.91;;;11.91;30.05
63285;BME280;49409;55.708;37.522;2023-03-20T08:28:12;99684.34;;;11.90;30.27
63285;BME280;49409;55.708;37.522;2023-03-20T08:30:38;99681.91;;;11.96;30.37
63285;BME280;49409;55.708;37.522;2023-03-20T08:33:03;99677.78;;;12.07;30.05
63285;BME280;49409;55.708;37.522;2023-03-20T08:35:29;99675.97;;;12.21;30.25
63285;BME280;49409;55.708;37.522;2023-03-20T08:37:54;99671.38;;;12.34;30.05
63285;BME280;49409;55.708;37.522;2023-03-20T08:40:19;99668.50;;;12.41;29.65
63285;BME280;49409;55.708;37.522;2023-03-20T08:42:45;99670.50;;;12.41;29.64
63285;BME280;49409;55.708;37.522;2023-03-20T08:45:10;99674.75;;;12.45;29.31
63285;BME280;49409;55.708;37.522;2023-03-20T08:47:36;99666.34;;;12.53;29.51
63285;BME280;49409;55.708;37.522;2023-03-20T08:50:01;99664.28;;;12.57;29.66
63285;BME280;49409;55.708;37.522;2023-03-20T08:52:27;99668.81;;;12.67;29.38
63285;BME280;49409;55.708;37.522;2023-03-20T08:54:52;99660.81;;;12.73;29.39
63285;BME280;49409;55.708;37.522;2023-03-20T08:57:17;99663.19;;;12.74;29.11
63285;BME280;49409;55.708;37.522;2023-03-20T08:59:43;99661.59;;;12.73;29.35
63285;BME280;49409;55.708;37.522;2023-03-20T09:02:09;99660.81;;;12.73;28.86
63285;BME280;49409;55.708;37.522;2023-03-20T09:04:35;99653.81;;;12.68;28.98
63285;BME280;49409;55.708;37.522;2023-03-20T09:07:00;99656.59;;;12.68;28.93
63285;BME280;49409;55.708;37.522;2023-03-20T09:09:27;99653.75;;;12.72;28.98
63285;BME280;49409;55.708;37.522;2023-03-20T09:11:54;99659.53;;;12.77;28.91
63285;BME280;49409;55.708;37.522;2023-03-20T09:14:19;99650.34;;;12.84;28.90
63285;BME280;49409;55.708;37.522;2023-03-20T09:16:45;99656.22;;;12.86;28.79
63285;BME280;49409;55.708;37.522;2023-03-20T09:19:11;99648.50;;;12.77;28.74
63285;BME280;49409;55.708;37.522;2023-03-20T09:21:36;99650.91;;;12.75;28.62
63285;BME280;49409;55.708;37.522;2023-03-20T09:24:01;99650.56;;;12.73;28.99
63285;BME280;49409;55.708;37.522;2023-03-20T09:26:27;99645.91;;;12.70;28.75
63285;BME280;49409;55.708;37.522;2023-03-20T09:28:52;99642.06;;;12.64;28.66
63285;BME280;49409;55.708;37.522;2023-03-20T09:31:18;99649.28;;;12.58;28.40
63285;BME280;49409;55.708;37.522;2023-03-20T09:33:43;99647.78;;;12.53;28.43
63285;BME280;49409;55.708;37.522;2023-03-20T09:36:08;99646.16;;;12.56;28.32
63285;BME280;49409;55.708;37.522;2023-03-20T09:38:36;99638.38;;;12.50;28.67
63285;BME280;49409;55.708;37.522;2023-03-20T09:41:02;99629.75;;;12.48;28.48
63285;BME280;49409;55.708;37.522;2023-03-20T09:46:13;99618.78;;;12.45;28.46
63285;BME280;49409;55.708;37.522;2023-03-20T09:48:48;99622.66;;;12.47;28.28
63285;BME280;49409;55.708;37.522;2023-03-20T09:51:22;99616.78;;;12.45;28.33
63285;BME280;49409;55.708;37.522;2023-03-20T09:53:52;99610.78;;;12.50;28.35
63285;BME280;49409;55.708;37.522;2023-03-20T09:56:20;99614.72;;;12.49;28.37
63285;BME280;49409;55.708;37.522;2023-03-20T09:58:51;99606.69;;;12.59;27.96
63285;BME280;49409;55.708;37.522;2023-03-20T10:01:16;99599.59;;;12.58;26.55
63285;BME280;49409;55.708;37.522;2023-03-20T10:06:11;99604.28;;;12.61;27.91
63285;BME280;49409;55.708;37.522;2023-03-20T10:08:37;99590.81;;;12.63;27.48
63285;BME280;49409;55.708;37.522;2023-03-20T10:13:38;99576.44;;;12.72;28.01
63285;BME280;49409;55.708;37.522;2023-03-20T10:18:36;99569.84;;;12.65;27.52
63285;BME280;49409;55.708;37.522;2023-03-20T10:21:04;99574.97;;;12.67;28.21
63285;BME280;49409;55.708;37.522;2023-03-20T10:26:02;99575.59;;;12.75;28.19
63285;BME280;49409;55.708;37.522;2023-03-20T10:28:41;99571.19;;;12.77;27.92
63285;BME280;49409;55.708;37.522;2023-03-20T10:41:55;99563.53;;;12.85;28.31
63285;BME280;49409;55.708;37.522;2023-03-20T10:44:32;99556.19;;;12.78;27.60
63285;BME280;49409;55.708;37.522;2023-03-20T10:46:59;99552.22;;;12.79;28.46
63285;BME280;49409;55.708;37.522;2023-03-20T10:52:01;99550.25;;;12.80;28.64
63285;BME280;49409;55.708;37.522;2023-03-20T10:54:33;99548.09;;;12.87;28.79
63285;BME280;49409;55.708;37.522;2023-03-20T10:56:59;99542.00;;;12.96;28.85
63285;BME280;49409;55.708;37.522;2023-03-20T10:59:27;99537.94;;;13.01;28.42
63285;BME280;49409;55.708;37.522;2023-03-20T11:01:53;99546.56;;;13.03;28.37
63285;BME280;49409;55.708;37.522;2023-03-20T11:04:19;99534.81;;;12.99;28.74
63285;BME280;49409;55.708;37.522;2023-03-20T11:06:47;99525.16;;;12.90;28.77
63285;BME280;49409;55.708;37.522;2023-03-20T11:09:20;99534.13;;;12.95;28.83
63285;BME280;49409;55.708;37.522;2023-03-20T11:11:46;99533.34;;;12.94;28.93
63285;BME280;49409;55.708;37.522;2023-03-20T11:14:21;99523.06;;;12.95;28.90
63285;BME280;49409;55.708;37.522;2023-03-20T11:16:48;99524.66;;;12.96;28.71
63285;BME280;49409;55.708;37.522;2023-03-20T11:19:14;99520.66;;;12.97;29.06
63285;BME280;49409;55.708;37.522;2023-03-20T11:22:26;99525.41;;;12.96;28.90
63285;BME280;49409;55.708;37.522;2023-03-20T11:24:39;99522.66;;;12.96;29.16
63285;BME280;49409;55.708;37.522;2023-03-20T11:27:09;99522.31;;;12.94;29.06
63285;BME280;49409;55.708;37.522;2023-03-20T11:29:36;99515.13;;;12.97;29.20
63285;BME280;49409;55.708;37.522;2023-03-20T11:32:06;99517.41;;;13.02;29.16
63285;BME280;49409;55.708;37.522;2023-03-20T11:34:35;99513.41;;;13.03;29.26
63285;BME280;49409;55.708;37.522;2023-03-20T11:37:01;99510.38;;;12.97;29.05
63285;BME280;49409;55.708;37.522;2023-03-20T11:39:30;99503.25;;;13.00;29.26
63285;BME280;49409;55.708;37.522;2023-03-20T11:42:01;99495.31;;;13.02;29.15
63285;BME280;49409;55.708;37.522;2023-03-20T11:44:33;99496.06;;;13.02;29.22
63285;BME280;49409;55.708;37.522;2023-03-20T11:49:27;99488.75;;;13.12;29.21
63285;BME280;49409;55.708;37.522;2023-03-20T11:51:55;99487.53;;;13.13;28.99
63285;BME280;49409;55.708;37.522;2023-03-20T11:54:22;99492.69;;;13.11;29.06
63285;BME280;49409;55.708;37.522;2023-03-20T11:56:53;99484.06;;;13.09;29.17
63285;BME280;49409;55.708;37.522;2023-03-20T11:59:19;99482.88;;;13.10;29.34
63285;BME280;49409;55.708;37.522;2023-03-20T12:01:46;99477.69;;;13.12;29.29
63285;BME280;49409;55.708;37.522;2023-03-20T12:06:42;99470.28;;;13.25;29.32
63285;BME280;49409;55.708;37.522;2023-03-20T12:14:24;99464.41;;;13.23;29.50
63285;BME280;49409;55.708;37.522;2023-03-20T12:16:53;99459.38;;;13.18;29.51
63285;BME280;49409;55.708;37.522;2023-03-20T12:19:21;99455.44;;;13.19;29.69
63285;BME280;49409;55.708;37.522;2023-03-20T12:22:01;99448.50;;;13.11;29.30
63285;BME280;49409;55.708;37.522;2023-03-20T12:24:32;99454.13;;;13.07;29.63
63285;BME280;49409;55.708;37.522;2023-03-20T12:29:49;99440.59;;;13.13;29.67
63285;BME280;49409;55.708;37.522;2023-03-20T12:34:46;99437.28;;;13.18;29.84
63285;BME280;49409;55.708;37.522;2023-03-20T12:37:14;99427.44;;;13.17;29.70
63285;BME280;49409;55.708;37.522;2023-03-20T12:39:44;99432.53;;;13.19;29.35
63285;BME280;49409;55.708;37.522;2023-03-20T12:42:21;99430.22;;;13.17;29.58
63285;BME280;49409;55.708;37.522;2023-03-20T12:44:52;99430.91;;;13.21;29.77
63285;BME280;49409;55.708;37.522;2023-03-20T12:50:08;99426.06;;;13.25;29.69
63285;BME280;49409;55.708;37.522;2023-03-20T13:01:11;99414.31;;;13.38;29.86
63285;BME280;49409;55.708;37.522;2023-03-20T13:03:44;99413.63;;;13.34;29.72
63285;BME280;49409;55.708;37.522;2023-03-20T13:17:21;99391.19;;;13.15;29.88
63285;BME280;49409;55.708;37.522;2023-03-20T13:27:39;99378.06;;;13.19;30.04
63285;BME280;49409;55.708;37.522;2023-03-20T13:37:52;99386.50;;;13.28;30.11
63285;BME280;49409;55.708;37.522;2023-03-20T13:40:26;99374.19;;;13.33;30.03
63285;BME280;49409;55.708;37.522;2023-03-20T13:43:20;99372.19;;;13.34;30.02
63285;BME280;49409;55.708;37.522;2023-03-20T13:45:42;99372.88;;;13.38;30.01
63285;BME280;49409;55.708;37.522;2023-03-20T13:50:46;99364.06;;;13.43;30.12
63285;BME280;49409;55.708;37.522;2023-03-20T13:59:01;99351.53;;;13.38;30.25
63285;BME280;49409;55.708;37.522;2023-03-20T14:01:41;99355.06;;;13.39;30.20
63285;BME280;49409;55.708;37.522;2023-03-20T14:04:12;99353.19;;;13.36;30.42
63285;BME280;49409;55.708;37.522;2023-03-20T14:06:44;99349.41;;;13.29;30.48
63285;BME280;49409;55.708;37.522;2023-03-20T14:11:48;99339.88;;;13.31;30.37
63285;BME280;49409;55.708;37.522;2023-03-20T14:14:26;99341.44;;;13.32;30.56
63285;BME280;49409;55.708;37.522;2023-03-20T14:17:06;99332.81;;;13.29;30.37
63285;BME280;49409;55.708;37.522;2023-03-20T14:19:33;99335.63;;;13.26;30.75
63285;BME280;49409;55.708;37.522;2023-03-20T14:22:02;99333.41;;;13.21;30.76
63285;BME280;49409;55.708;37.522;2023-03-20T14:24:27;99326.78;;;13.18;30.89
63285;BME280;49409;55.708;37.522;2023-03-20T14:26:56;99333.19;;;13.15;30.86
63285;BME280;49409;55.708;37.522;2023-03-20T14:32:04;99334.91;;;13.09;31.03
63285;BME280;49409;55.708;37.522;2023-03-20T14:35:00;99325.25;;;13.01;31.04
63285;BME280;49409;55.708;37.522;2023-03-20T14:37:29;99325.78;;;12.96;31.37
63285;BME280;49409;55.708;37.522;2023-03-20T14:40:14;99334.94;;;12.93;31.12
63285;BME280;49409;55.708;37.522;2023-03-20T14:42:58;99337.00;;;12.88;31.05
63285;BME280;49409;55.708;37.522;2023-03-20T14:48:27;99324.09;;;12.69;31.60
63285;BME280;49409;55.708;37.522;2023-03-20T14:53:24;99333.75;;;12.61;31.69
63285;BME280;49409;55.708;37.522;2023-03-20T15:01:13;99324.59;;;12.47;31.94
63285;BME280;49409;55.708;37.522;2023-03-20T15:03:39;99326.31;;;12.41;32.49
63285;BME280;49409;55.708;37.522;2023-03-20T15:06:06;99327.97;;;12.39;32.74
63285;BME280;49409;55.708;37.522;2023-03-20T15:08:40;99329.63;;;12.36;32.23
63285;BME280;49409;55.708;37.522;2023-03-20T15:11:09;99320.81;;;12.25;32.16
63285;BME280;49409;55.708;37.522;2023-03-20T15:13:35;99319.75;;;12.19;32.24
63285;BME280;49409;55.708;37.522;2023-03-20T15:18:34;99318.44;;;12.07;32.49
63285;BME280;49409;55.708;37.522;2023-03-20T15:21:00;99322.47;;;12.02;32.64
63285;BME280;49409;55.708;37.522;2023-03-20T15:23:25;99320.16;;;12.01;32.68
63285;BME280;49409;55.708;37.522;2023-03-20T15:25:50;99315.06;;;11.99;32.32
63285;BME280;49409;55.708;37.522;2023-03-20T15:28:21;99314.38;;;11.95;32.59
63285;BME280;49409;55.708;37.522;2023-03-20T15:30:47;99316.09;;;11.89;32.99
63285;BME280;49409;55.708;37.522;2023-03-20T15:33:15;99311.38;;;11.86;32.34
63285;BME280;49409;55.708;37.522;2023-03-20T15:35:41;99305.94;;;11.82;32.76
63285;BME280;49409;55.708;37.522;2023-03-20T15:38:07;99317.50;;;11.77;33.79